Time;durP1;ratioP1;P1;durP2;ratioP2;P2;SDS_P1;SDS_P2;PMS_P1;PMS_P2;Temp;Humidity;BMP_temperature;BMP_pressure;BME280_temperature;BME280_humidity;BME280_pressure;Samples;Min_cycle;Max_cycle;Signal;HPM_P1;HPM_P2
2022/06/27 00:05:39;;;;;;;;;;;;;;;19.43;68.28;95203.53;5083831;22;20378;-75
2022/06/27 00:08:04;;;;;;;;;;;;;;;19.40;68.27;95201.44;5161220;22;19929;-77
2022/06/27 00:10:30;;;;;;;;;;;;;;;19.37;68.38;95194.09;5040331;28;20130;-78
2022/06/27 00:13:01;;;;;;;;;;;;;;;19.38;68.01;95193.03;5040242;28;19975;-77
2022/06/27 00:15:26;;;;;;;;;;;;;;;19.33;68.08;95195.69;5033309;28;19931;-77
2022/06/27 00:18:00;;;;;;;;;;;;;;;19.35;67.92;95196.19;5042573;28;19921;-77
2022/06/27 00:20:25;;;;;;;;;;;;;;;19.33;67.87;95195.69;5041326;28;20012;-77
2022/06/27 00:22:51;;;;;;;;;;;;;;;19.33;68.35;95200.97;5042084;28;20016;-77
2022/06/27 00:25:16;;;;;;;;;;;;;;;19.28;68.66;95204.44;5047380;22;20312;-77
2022/06/27 00:27:42;;;;;;;;;;;;;;;19.26;68.47;95200.50;5041746;28;19920;-77
2022/06/27 00:30:07;;;;;;;;;;;;;;;19.28;68.46;95201.03;5042036;28;20037;-77
2022/06/27 00:35:00;;;;;;;;;;;;;;;19.22;68.52;95210.03;5063634;22;19984;-77
2022/06/27 00:37:26;;;;;;;;;;;;;;;19.23;68.49;95208.97;5040624;28;19925;-77
2022/06/27 00:39:51;;;;;;;;;;;;;;;19.21;69.09;95203.19;5041974;28;19978;-77
2022/06/27 00:42:16;;;;;;;;;;;;;;;19.19;68.58;95206.09;5044464;28;19930;-77
2022/06/27 00:44:42;;;;;;;;;;;;;;;19.20;68.46;95205.06;5042163;28;19917;-77
2022/06/27 00:47:08;;;;;;;;;;;;;;;19.13;68.52;95199.28;5058837;22;20018;-77
2022/06/27 00:49:33;;;;;;;;;;;;;;;19.08;68.36;95197.50;5051888;28;19970;-77
2022/06/27 00:51:59;;;;;;;;;;;;;;;19.07;68.33;95203.81;5079038;22;20753;-76
2022/06/27 00:54:24;;;;;;;;;;;;;;;19.07;68.39;95203.81;5081208;28;19935;-77
2022/06/27 00:56:50;;;;;;;;;;;;;;;19.07;68.19;95192.50;5119381;22;19935;-77
2022/06/27 00:59:15;;;;;;;;;;;;;;;19.02;68.47;95193.28;5050882;28;20429;-77
2022/06/27 01:01:46;;;;;;;;;;;;;;;19.01;68.63;95189.09;5051701;28;19917;-77
2022/06/27 01:04:22;;;;;;;;;;;;;;;19.03;68.55;95180.91;5050416;28;19920;-77
2022/06/27 01:06:51;;;;;;;;;;;;;;;18.97;68.86;95182.00;5158633;23;19980;-77
2022/06/27 01:09:18;;;;;;;;;;;;;;;18.99;68.88;95182.53;5032043;28;19921;-77
2022/06/27 01:11:43;;;;;;;;;;;;;;;18.95;68.22;95177.03;5031717;28;20523;-77
2022/06/27 01:14:12;;;;;;;;;;;;;;;18.91;68.78;95181.28;5075895;23;20012;-77
2022/06/27 01:16:37;;;;;;;;;;;;;;;18.94;68.69;95172.81;5109270;22;19940;-77
2022/06/27 01:19:03;;;;;;;;;;;;;;;18.97;68.56;95174.09;5079704;23;19935;-77
2022/06/27 01:21:28;;;;;;;;;;;;;;;18.97;68.86;95176.75;5074205;28;19928;-77
2022/06/27 01:23:53;;;;;;;;;;;;;;;18.95;68.56;95176.25;5043022;28;19925;-77
2022/06/27 01:26:19;;;;;;;;;;;;;;;18.90;68.35;95174.44;5060335;28;19923;-77
2022/06/27 01:28:44;;;;;;;;;;;;;;;18.87;68.69;95185.50;5061190;28;19924;-76
2022/06/27 01:31:13;;;;;;;;;;;;;;;18.80;69.28;95183.19;5059781;28;19925;-76
2022/06/27 01:33:38;;;;;;;;;;;;;;;18.78;69.60;95176.63;5060985;28;19998;-76
2022/06/27 01:38:47;;;;;;;;;;;;;;;18.80;69.17;95185.81;5060020;28;20469;-76
2022/06/27 01:41:12;;;;;;;;;;;;;;;18.79;68.95;95188.72;5059142;28;19924;-76
2022/06/27 01:43:38;;;;;;;;;;;;;;;18.80;69.11;95198.22;5110371;22;19948;-76
2022/06/27 01:46:03;;;;;;;;;;;;;;;18.74;68.92;95204.59;5038341;28;19935;-76
2022/06/27 01:48:28;;;;;;;;;;;;;;;18.71;68.97;95194.56;5030824;28;19917;-76
2022/06/27 01:50:54;;;;;;;;;;;;;;;18.63;69.00;95203.03;5027941;28;20320;-77
2022/06/27 01:53:19;;;;;;;;;;;;;;;18.53;69.09;95209.91;5030769;28;19921;-77
2022/06/27 01:55:44;;;;;;;;;;;;;;;18.46;69.87;95208.66;5030543;28;19932;-77
2022/06/27 01:58:09;;;;;;;;;;;;;;;18.38;70.35;95209.97;5026873;28;20336;-77
2022/06/27 02:00:35;;;;;;;;;;;;;;;18.35;70.90;95215.00;5025834;28;20009;-77
2022/06/27 02:03:00;;;;;;;;;;;;;;;18.37;71.04;95211.03;5029003;28;19925;-77
2022/06/27 02:05:25;;;;;;;;;;;;;;;18.41;71.18;95212.09;5011806;28;20316;-76
2022/06/27 02:07:50;;;;;;;;;;;;;;;18.46;71.08;95212.06;5030550;28;20020;-76
2022/06/27 02:10:16;;;;;;;;;;;;;;;18.51;70.91;95221.78;5030622;28;19925;-76
2022/06/27 02:12:41;;;;;;;;;;;;;;;18.45;70.43;95215.75;5030430;28;19945;-76
2022/06/27 02:15:07;;;;;;;;;;;;;;;18.47;69.40;95221.53;5021217;28;19967;-76
2022/06/27 02:17:32;;;;;;;;;;;;;;;18.48;69.51;95223.13;5030531;28;19922;-76
2022/06/27 02:19:57;;;;;;;;;;;;;;;18.43;69.30;95228.41;5027684;28;19936;-76
2022/06/27 02:22:23;;;;;;;;;;;;;;;18.45;69.58;95233.41;5020872;28;19925;-76
2022/06/27 02:24:48;;;;;;;;;;;;;;;18.48;69.54;95228.38;5029843;28;20418;-76
2022/06/27 02:27:13;;;;;;;;;;;;;;;18.52;68.79;95228.63;5028944;28;19925;-77
2022/06/27 02:29:42;;;;;;;;;;;;;;;18.51;68.82;95227.03;5029186;28;19975;-76
2022/06/27 02:32:08;;;;;;;;;;;;;;;18.50;69.19;95236.00;5030225;28;20431;-76
2022/06/27 02:34:33;;;;;;;;;;;;;;;18.46;69.15;95225.22;5029594;28;19921;-76
2022/06/27 02:36:59;;;;;;;;;;;;;;;18.41;69.11;95237.66;5029558;28;19932;-76
2022/06/27 02:39:24;;;;;;;;;;;;;;;18.38;69.16;95240.78;5028290;28;19937;-76
2022/06/27 02:41:56;;;;;;;;;;;;;;;18.35;69.27;95234.22;5030257;28;19925;-76
2022/06/27 02:44:21;;;;;;;;;;;;;;;18.34;69.34;95239.75;5030341;28;19925;-76
2022/06/27 02:46:46;;;;;;;;;;;;;;;18.36;69.44;95240.28;5030298;28;19925;-78
2022/06/27 02:49:12;;;;;;;;;;;;;;;18.32;69.14;95242.66;5021591;28;19921;-77
2022/06/27 02:51:41;;;;;;;;;;;;;;;18.35;69.20;95243.97;5053837;23;19967;-77
2022/06/27 02:56:35;;;;;;;;;;;;;;;18.33;68.98;95248.72;5104541;22;19997;-77
2022/06/27 02:59:01;;;;;;;;;;;;;;;18.35;68.55;95254.50;5028625;28;20034;-76
2022/06/27 03:01:26;;;;;;;;;;;;;;;18.36;69.04;95256.88;5024217;28;20007;-76
2022/06/27 03:03:51;;;;;;;;;;;;;;;18.39;69.48;95253.72;5054176;22;20118;-76
2022/06/27 03:06:18;;;;;;;;;;;;;;;18.45;68.50;95257.09;5048537;28;19975;-76
2022/06/27 03:08:44;;;;;;;;;;;;;;;18.47;68.27;95255.00;5047958;28;20063;-76
2022/06/27 03:11:10;;;;;;;;;;;;;;;18.51;68.66;95259.44;5048336;28;20510;-76
2022/06/27 03:13:35;;;;;;;;;;;;;;;18.56;68.80;95259.44;5047541;28;19920;-77
2022/06/27 03:16:01;;;;;;;;;;;;;;;18.58;67.91;95259.16;5048969;28;20338;-76
2022/06/27 03:18:26;;;;;;;;;;;;;;;18.65;67.93;95248.34;5050481;28;19921;-76
2022/06/27 03:20:51;;;;;;;;;;;;;;;18.72;68.38;95248.84;5049586;28;19927;-76
2022/06/27 03:23:16;;;;;;;;;;;;;;;18.75;68.79;95249.09;5049572;28;20015;-76
2022/06/27 03:25:42;;;;;;;;;;;;;;;18.79;68.39;95251.97;5049510;28;19924;-76
2022/06/27 03:28:07;;;;;;;;;;;;;;;18.79;68.62;95254.59;5039589;28;19921;-76
2022/06/27 03:30:32;;;;;;;;;;;;;;;18.89;68.05;95249.28;5039482;28;19924;-76
2022/06/27 03:32:58;;;;;;;;;;;;;;;18.97;67.78;95253.97;5053978;28;19995;-76
2022/06/27 03:35:23;;;;;;;;;;;;;;;19.07;67.08;95253.91;5047859;28;19974;-76
2022/06/27 03:37:48;;;;;;;;;;;;;;;19.17;67.01;95245.91;5051882;28;19927;-76
2022/06/27 03:40:13;;;;;;;;;;;;;;;19.27;66.16;95255.59;5051722;28;19995;-76
2022/06/27 03:42:39;;;;;;;;;;;;;;;19.35;65.87;95251.56;5053004;28;19921;-77
2022/06/27 03:45:04;;;;;;;;;;;;;;;19.47;65.15;95259.94;5054213;28;19927;-76
2022/06/27 03:47:30;;;;;;;;;;;;;;;19.57;65.08;95257.25;5051358;28;19921;-76
2022/06/27 03:50:01;;;;;;;;;;;;;;;19.68;64.66;95253.44;5051199;28;20380;-76
2022/06/27 03:52:26;;;;;;;;;;;;;;;19.78;64.38;95256.00;5051389;28;19920;-76
2022/06/27 03:54:51;;;;;;;;;;;;;;;19.90;64.00;95258.25;5052568;28;20288;-76
2022/06/27 03:57:17;;;;;;;;;;;;;;;19.97;63.97;95257.91;5052362;28;19920;-76
2022/06/27 03:59:42;;;;;;;;;;;;;;;20.04;63.67;95263.66;5042827;28;20310;-76
2022/06/27 04:02:09;;;;;;;;;;;;;;;20.14;63.45;95260.91;5051595;28;19924;-76
2022/06/27 04:04:34;;;;;;;;;;;;;;;20.36;63.47;95258.56;5051416;28;19939;-77
2022/06/27 04:07:02;;;;;;;;;;;;;;;21.88;59.75;95257.47;5050550;28;19921;-77
2022/06/27 04:09:27;;;;;;;;;;;;;;;23.95;52.81;95250.66;5052341;28;20067;-77
2022/06/27 04:11:52;;;;;;;;;;;;;;;25.95;47.37;95249.84;5042760;28;20023;-75
2022/06/27 04:14:17;;;;;;;;;;;;;;;27.80;42.36;95256.84;5052482;28;19924;-75
2022/06/27 04:16:43;;;;;;;;;;;;;;;29.41;39.00;95249.25;5059228;28;19940;-76
2022/06/27 04:19:08;;;;;;;;;;;;;;;30.80;35.72;95247.41;5041294;28;19924;-76
2022/06/27 04:21:33;;;;;;;;;;;;;;;32.16;32.94;95244.34;5041559;28;19925;-77
2022/06/27 04:23:59;;;;;;;;;;;;;;;33.27;31.30;95243.31;5051251;28;19928;-77
2022/06/27 04:26:25;;;;;;;;;;;;;;;34.30;29.43;95252.53;5001337;28;19929;-76
2022/06/27 04:28:50;;;;;;;;;;;;;;;35.53;27.34;95244.84;5012645;28;20511;-76
2022/06/27 04:31:15;;;;;;;;;;;;;;;36.41;26.26;95259.72;5011199;28;19992;-76
2022/06/27 04:33:41;;;;;;;;;;;;;;;37.30;24.94;95240.66;5010934;28;19926;-76
2022/06/27 04:36:07;;;;;;;;;;;;;;;37.93;24.05;95250.44;5013816;28;19944;-76
2022/06/27 04:38:32;;;;;;;;;;;;;;;38.82;22.87;95251.72;5012823;28;19921;-77
2022/06/27 04:40:58;;;;;;;;;;;;;;;39.42;22.01;95248.38;5027584;28;19943;-77
2022/06/27 04:43:26;;;;;;;;;;;;;;;39.86;21.53;95244.69;5009665;28;19921;-77
2022/06/27 04:45:52;;;;;;;;;;;;;;;40.49;20.63;95242.22;5011401;28;20308;-77
2022/06/27 04:48:18;;;;;;;;;;;;;;;40.81;20.72;95246.34;5011704;28;19921;-76
2022/06/27 04:50:44;;;;;;;;;;;;;;;41.63;19.46;95251.03;5012068;28;19922;-76
2022/06/27 04:53:09;;;;;;;;;;;;;;;42.42;18.80;95243.84;5011820;28;19964;-76
2022/06/27 04:55:34;;;;;;;;;;;;;;;42.72;18.35;95240.78;5012824;28;19944;-76
2022/06/27 04:58:00;;;;;;;;;;;;;;;43.57;17.43;95243.19;5011294;28;19925;-77
2022/06/27 05:00:25;;;;;;;;;;;;;;;44.05;17.27;95237.88;5054236;23;19929;-77
2022/06/27 05:02:50;;;;;;;;;;;;;;;44.55;16.71;95240.59;5002918;28;19972;-77
2022/06/27 05:05:15;;;;;;;;;;;;;;;44.97;15.39;95240.38;5003505;28;19922;-77
2022/06/27 05:07:43;;;;;;;;;;;;;;;45.51;15.25;95244.75;5011395;23;20434;-78
2022/06/27 05:10:08;;;;;;;;;;;;;;;45.78;15.14;95246.91;4992681;23;20147;-77
2022/06/27 05:12:34;;;;;;;;;;;;;;;46.29;14.87;95252.75;5015493;28;20374;-79
2022/06/27 05:15:00;;;;;;;;;;;;;;;46.76;13.99;95248.13;5013253;28;20003;-78
2022/06/27 05:17:25;;;;;;;;;;;;;;;47.16;13.99;95254.28;5012156;28;20381;-78
2022/06/27 05:19:50;;;;;;;;;;;;;;;47.55;13.42;95243.56;5012687;28;19929;-78
2022/06/27 05:22:16;;;;;;;;;;;;;;;48.12;12.84;95249.94;5011774;28;19922;-78
2022/06/27 05:24:41;;;;;;;;;;;;;;;48.64;12.76;95236.06;5012667;28;19979;-78
2022/06/27 05:27:07;;;;;;;;;;;;;;;49.12;12.62;95247.81;4994831;28;19980;-78
2022/06/27 05:29:33;;;;;;;;;;;;;;;49.54;12.21;95244.84;5012754;28;19925;-78
2022/06/27 05:31:58;;;;;;;;;;;;;;;49.84;11.93;95251.13;5012897;28;20008;-78
2022/06/27 05:34:24;;;;;;;;;;;;;;;50.30;12.00;95264.41;5011104;28;19921;-79
2022/06/27 05:36:49;;;;;;;;;;;;;;;50.52;11.60;95252.91;5007595;28;19928;-77
2022/06/27 05:39:14;;;;;;;;;;;;;;;50.87;11.30;95261.16;5011927;28;19922;-78
2022/06/27 05:41:40;;;;;;;;;;;;;;;51.13;11.53;95260.47;5010604;28;19925;-77
2022/06/27 05:44:05;;;;;;;;;;;;;;;51.34;10.91;95253.63;5150808;23;20399;-78
2022/06/27 05:46:32;;;;;;;;;;;;;;;51.25;11.34;95256.56;5031294;28;19925;-77
2022/06/27 05:48:58;;;;;;;;;;;;;;;51.47;10.92;95256.81;5031565;28;20447;-77
2022/06/27 05:51:23;;;;;;;;;;;;;;;50.56;11.07;95255.47;5012997;28;19925;-77
2022/06/27 05:53:49;;;;;;;;;;;;;;;50.27;11.05;95259.81;5013288;28;19983;-77
2022/06/27 05:56:15;;;;;;;;;;;;;;;49.98;11.39;95260.66;5032353;28;19927;-77
2022/06/27 05:58:43;;;;;;;;;;;;;;;49.84;11.55;95253.91;5032130;28;20051;-77
2022/06/27 06:01:09;;;;;;;;;;;;;;;50.00;11.57;95251.91;5013151;28;19925;-77
2022/06/27 06:03:35;;;;;;;;;;;;;;;49.97;12.14;95255.59;5041437;28;19935;-78
2022/06/27 06:06:00;;;;;;;;;;;;;;;49.95;12.22;95255.28;5038891;28;20332;-79
2022/06/27 06:08:26;;;;;;;;;;;;;;;50.59;11.56;95251.72;5033844;28;20004;-78
2022/06/27 06:10:51;;;;;;;;;;;;;;;51.02;11.36;95259.06;5015419;28;19931;-77
2022/06/27 06:13:17;;;;;;;;;;;;;;;51.06;11.14;95253.34;5013422;28;20343;-79
2022/06/27 06:15:42;;;;;;;;;;;;;;;50.98;10.89;95247.44;5032281;28;20008;-77
2022/06/27 06:18:08;;;;;;;;;;;;;;;50.99;10.94;95250.97;5035138;28;19984;-77
2022/06/27 06:20:33;;;;;;;;;;;;;;;50.91;11.40;95256.16;5036487;28;20091;-77
2022/06/27 06:22:59;;;;;;;;;;;;;;;50.64;11.48;95259.34;5018689;28;19925;-76
2022/06/27 06:25:25;;;;;;;;;;;;;;;51.24;11.12;95253.03;5017128;28;19920;-78
2022/06/27 06:27:51;;;;;;;;;;;;;;;51.24;11.06;95253.03;5030665;28;20007;-77
2022/06/27 06:30:19;;;;;;;;;;;;;;;51.14;11.06;95257.22;5013770;28;20040;-78
2022/06/27 06:35:16;;;;;;;;;;;;;;;49.80;11.56;95252.56;5246758;23;19965;-77
2022/06/27 06:37:43;;;;;;;;;;;;;;;49.25;12.32;95250.31;5011404;28;20019;-77
2022/06/27 06:40:09;;;;;;;;;;;;;;;48.72;12.54;95258.56;5010486;28;19925;-77
2022/06/27 06:42:35;;;;;;;;;;;;;;;48.05;13.45;95258.56;4992391;28;19932;-77
2022/06/27 06:45:00;;;;;;;;;;;;;;;48.30;13.32;95256.63;5010063;28;19966;-77
2022/06/27 06:47:26;;;;;;;;;;;;;;;48.00;12.91;95261.19;5010473;28;19963;-76
2022/06/27 06:49:51;;;;;;;;;;;;;;;48.44;13.24;95258.69;5011264;28;19944;-76
2022/06/27 06:52:18;;;;;;;;;;;;;;;47.30;14.19;95258.41;4992763;28;19928;-76
2022/06/27 06:54:45;;;;;;;;;;;;;;;47.33;14.03;95260.25;4992236;28;19921;-77
2022/06/27 06:57:10;;;;;;;;;;;;;;;48.08;13.49;95257.63;4991781;28;19921;-77
2022/06/27 06:59:36;;;;;;;;;;;;;;;47.30;14.03;95255.66;4987412;28;19932;-76
2022/06/27 07:02:03;;;;;;;;;;;;;;;47.19;14.37;95267.16;5009390;28;19921;-77
2022/06/27 07:04:29;;;;;;;;;;;;;;;47.46;14.17;95273.84;4991998;28;20622;-76
2022/06/27 07:06:55;;;;;;;;;;;;;;;46.52;14.73;95267.97;5010411;28;19928;-76
2022/06/27 07:09:20;;;;;;;;;;;;;;;45.99;15.64;95268.06;5009810;28;19922;-76
2022/06/27 07:11:46;;;;;;;;;;;;;;;45.00;16.62;95275.16;4991148;28;19956;-76
2022/06/27 07:14:11;;;;;;;;;;;;;;;44.21;15.98;95263.22;4992117;28;20434;-76
2022/06/27 07:16:37;;;;;;;;;;;;;;;43.52;17.58;95265.63;4991646;28;19932;-77
2022/06/27 07:19:04;;;;;;;;;;;;;;;42.95;18.20;95269.13;5009427;28;19924;-77
2022/06/27 07:21:31;;;;;;;;;;;;;;;42.45;18.75;95273.06;4992137;28;19928;-77
2022/06/27 07:23:57;;;;;;;;;;;;;;;41.98;18.57;95276.06;5008360;28;19921;-76
2022/06/27 07:26:23;;;;;;;;;;;;;;;41.34;19.23;95271.94;5008787;28;19978;-77
2022/06/27 07:28:48;;;;;;;;;;;;;;;40.83;20.39;95275.97;5009337;28;19925;-77
2022/06/27 07:31:14;;;;;;;;;;;;;;;40.10;20.11;95274.75;5008611;28;19979;-77
2022/06/27 07:33:39;;;;;;;;;;;;;;;39.51;21.20;95272.38;5009156;28;20008;-76
2022/06/27 07:36:05;;;;;;;;;;;;;;;38.88;22.01;95269.91;4975690;28;19968;-77
2022/06/27 07:38:32;;;;;;;;;;;;;;;38.39;22.65;95265.66;4991464;28;20450;-77
2022/06/27 07:40:58;;;;;;;;;;;;;;;38.21;23.26;95265.03;5008604;28;19921;-77
2022/06/27 07:43:23;;;;;;;;;;;;;;;37.84;23.46;95263.69;5009245;28;19982;-77
2022/06/27 07:45:48;;;;;;;;;;;;;;;37.47;23.82;95262.28;4990395;28;19925;-77
2022/06/27 07:48:17;;;;;;;;;;;;;;;37.14;23.74;95276.31;4990870;28;20516;-76
2022/06/27 07:50:42;;;;;;;;;;;;;;;36.78;24.33;95270.97;5009285;28;20157;-77
2022/06/27 07:53:19;;;;;;;;;;;;;;;36.61;24.22;95264.38;5008251;28;20361;-77
2022/06/27 07:55:50;;;;;;;;;;;;;;;36.50;24.62;95265.56;4992118;28;19960;-77
2022/06/27 07:58:19;;;;;;;;;;;;;;;36.29;24.08;95266.31;4991422;28;20396;-76
2022/06/27 08:00:45;;;;;;;;;;;;;;;36.09;23.03;95269.34;5009303;28;19921;-76
2022/06/27 08:05:55;;;;;;;;;;;;;;;34.92;25.73;95255.34;4994112;28;19971;-76
2022/06/27 08:10:56;;;;;;;;;;;;;;;34.69;25.96;95254.78;5314637;22;19933;-76
2022/06/27 08:13:21;;;;;;;;;;;;;;;34.50;27.31;95253.91;5018583;28;19929;-76
2022/06/27 08:15:47;;;;;;;;;;;;;;;34.32;26.31;95255.63;5019014;28;19925;-76
2022/06/27 08:18:16;;;;;;;;;;;;;;;33.51;27.27;95263.66;4998477;28;19925;-76
2022/06/27 08:20:42;;;;;;;;;;;;;;;33.27;27.19;95256.81;5017822;28;19924;-76
2022/06/27 08:23:08;;;;;;;;;;;;;;;32.95;28.49;95262.53;5013906;28;20316;-76
2022/06/27 08:25:34;;;;;;;;;;;;;;;32.97;28.49;95262.19;5020169;28;19926;-76
2022/06/27 08:28:00;;;;;;;;;;;;;;;32.92;28.93;95257.13;5021975;28;20051;-76
2022/06/27 08:30:25;;;;;;;;;;;;;;;32.90;28.63;95257.47;5021573;28;20488;-75
2022/06/27 08:32:54;;;;;;;;;;;;;;;32.77;29.97;95259.56;5029727;22;20008;-76
2022/06/27 08:35:19;;;;;;;;;;;;;;;32.74;29.73;95254.13;5012122;28;19921;-76
2022/06/27 08:37:46;;;;;;;;;;;;;;;32.60;30.24;95254.69;5012723;28;19925;-75
2022/06/27 08:40:11;;;;;;;;;;;;;;;32.40;31.40;95255.94;4994136;28;20374;-76
2022/06/27 08:42:37;;;;;;;;;;;;;;;32.40;31.45;95261.31;5011956;28;19949;-76
2022/06/27 08:45:07;;;;;;;;;;;;;;;32.31;30.05;95250.78;4993820;28;21235;-76
2022/06/27 08:47:32;;;;;;;;;;;;;;;32.28;30.35;95248.03;4993736;28;19922;-75
2022/06/27 08:49:57;;;;;;;;;;;;;;;32.30;31.16;95251.16;5012171;28;19921;-75
2022/06/27 08:52:22;;;;;;;;;;;;;;;32.44;30.66;95251.38;5012171;28;19921;-76
2022/06/27 08:54:51;;;;;;;;;;;;;;;32.53;30.23;95249.97;4993209;28;20391;-76
2022/06/27 08:57:18;;;;;;;;;;;;;;;32.37;28.86;95260.09;4994157;28;20336;-76
2022/06/27 08:59:44;;;;;;;;;;;;;;;31.48;28.54;95258.47;4994821;28;19921;-76
2022/06/27 09:02:09;;;;;;;;;;;;;;;30.85;30.08;95252.50;5012690;28;20802;-75
2022/06/27 09:04:59;;;;;;;;;;;;;;;30.96;30.93;95254.31;5012180;28;19926;-75
2022/06/27 09:07:45;;;;;;;;;;;;;;;30.74;30.94;95250.34;4994241;28;19925;-75
2022/06/27 09:10:26;;;;;;;;;;;;;;;30.68;30.65;95251.00;5007856;28;19922;-75
2022/06/27 09:12:55;;;;;;;;;;;;;;;30.62;30.75;95247.03;5011435;28;19927;-75
2022/06/27 09:15:21;;;;;;;;;;;;;;;30.42;31.55;95254.19;5010098;28;20496;-77
2022/06/27 09:17:58;;;;;;;;;;;;;;;29.91;31.60;95254.06;5011496;28;20012;-75
2022/06/27 09:20:24;;;;;;;;;;;;;;;30.12;31.15;95246.59;4993132;28;19922;-77
2022/06/27 09:22:51;;;;;;;;;;;;;;;30.26;30.84;95251.50;4996556;28;19993;-77
2022/06/27 09:25:21;;;;;;;;;;;;;;;30.16;31.78;95249.34;4991855;28;19936;-77
2022/06/27 09:27:50;;;;;;;;;;;;;;;29.89;32.42;95250.94;5008729;28;19930;-77
2022/06/27 09:30:18;;;;;;;;;;;;;;;29.84;31.83;95251.19;5010067;28;19922;-77
2022/06/27 09:32:44;;;;;;;;;;;;;;;29.89;31.48;95246.34;5011684;28;19922;-77
2022/06/27 09:35:20;;;;;;;;;;;;;;;30.01;31.92;95244.72;5011181;28;19924;-77
2022/06/27 09:37:54;;;;;;;;;;;;;;;30.16;31.24;95241.31;5011576;28;19980;-77
2022/06/27 09:40:21;;;;;;;;;;;;;;;30.31;31.27;95237.84;4976863;28;19922;-77
2022/06/27 09:42:47;;;;;;;;;;;;;;;30.32;31.43;95239.41;5011422;28;19932;-77
2022/06/27 09:45:13;;;;;;;;;;;;;;;30.43;31.60;95250.41;4993700;28;19921;-77
2022/06/27 09:47:38;;;;;;;;;;;;;;;30.28;31.91;95249.28;5009319;28;19929;-77
2022/06/27 09:50:04;;;;;;;;;;;;;;;30.11;32.50;95238.91;5011329;28;19928;-77
2022/06/27 09:52:29;;;;;;;;;;;;;;;30.12;32.99;95240.44;5027665;23;19925;-77
2022/06/27 09:54:55;;;;;;;;;;;;;;;29.80;33.85;95235.03;5010904;28;19926;-77
2022/06/27 09:57:20;;;;;;;;;;;;;;;29.78;33.43;95239.97;5011162;28;20401;-77
2022/06/27 09:59:50;;;;;;;;;;;;;;;29.87;33.91;95242.47;5011258;28;20429;-77
2022/06/27 10:02:19;;;;;;;;;;;;;;;30.11;33.55;95238.91;5011086;28;19983;-77
2022/06/27 10:04:45;;;;;;;;;;;;;;;30.28;32.23;95238.53;5007618;28;19921;-77
2022/06/27 10:07:10;;;;;;;;;;;;;;;30.47;32.11;95235.94;5010810;28;19972;-77
2022/06/27 10:09:37;;;;;;;;;;;;;;;30.62;31.13;95230.91;5009102;28;20356;-77
2022/06/27 10:12:24;;;;;;;;;;;;;;;30.67;30.80;95228.72;5009709;28;20399;-77
2022/06/27 10:15:08;;;;;;;;;;;;;;;30.87;30.97;95226.84;5009902;28;19933;-77
2022/06/27 10:17:34;;;;;;;;;;;;;;;31.05;31.02;95222.63;5010583;28;20409;-77
2022/06/27 10:20:00;;;;;;;;;;;;;;;31.18;31.73;95223.31;5009411;28;19928;-77
2022/06/27 10:22:25;;;;;;;;;;;;;;;31.14;32.67;95213.59;5008927;28;19929;-76
2022/06/27 10:24:55;;;;;;;;;;;;;;;31.09;32.37;95212.00;5010469;28;20317;-77
2022/06/27 10:27:30;;;;;;;;;;;;;;;31.04;32.82;95213.03;5010558;28;19925;-77
2022/06/27 10:29:55;;;;;;;;;;;;;;;30.91;33.24;95211.59;5010768;28;19921;-77
2022/06/27 10:32:44;;;;;;;;;;;;;;;30.84;32.45;95210.69;5009041;28;19995;-77
2022/06/27 10:35:18;;;;;;;;;;;;;;;30.70;32.48;95211.16;5009626;28;19922;-76
2022/06/27 10:37:43;;;;;;;;;;;;;;;30.57;32.71;95204.31;5008401;28;19925;-76
2022/06/27 10:40:24;;;;;;;;;;;;;;;29.80;33.84;95202.84;5011571;28;19928;-76
2022/06/27 10:42:49;;;;;;;;;;;;;;;29.12;36.45;95199.44;5007600;28;19921;-75
2022/06/27 10:45:21;;;;;;;;;;;;;;;29.07;35.86;95207.72;5009893;28;20052;-76
2022/06/27 10:47:49;;;;;;;;;;;;;;;28.87;35.48;95204.88;5009210;28;20344;-76
2022/06/27 10:50:15;;;;;;;;;;;;;;;28.79;36.43;95207.66;5008827;28;19925;-76
2022/06/27 10:52:41;;;;;;;;;;;;;;;28.86;36.27;95199.84;5007976;28;19925;-76
2022/06/27 10:55:25;;;;;;;;;;;;;;;28.98;36.24;95205.22;5008195;28;19925;-77
2022/06/27 10:57:51;;;;;;;;;;;;;;;29.10;34.64;95202.47;5005454;28;19922;-77
2022/06/27 11:00:35;;;;;;;;;;;;;;;29.13;35.00;95212.53;5006936;28;19921;-77
2022/06/27 11:03:00;;;;;;;;;;;;;;;29.27;35.65;95191.47;5008681;28;19928;-77
2022/06/27 11:05:27;;;;;;;;;;;;;;;29.37;34.89;95194.78;4992043;28;19925;-77
2022/06/27 11:07:53;;;;;;;;;;;;;;;28.34;36.12;95203.28;5007355;28;20286;-77
2022/06/27 11:10:20;;;;;;;;;;;;;;;27.63;37.99;95200.88;5009022;28;19933;-77
2022/06/27 11:12:45;;;;;;;;;;;;;;;27.49;37.94;95206.53;5010148;28;20004;-77
2022/06/27 11:15:11;;;;;;;;;;;;;;;27.65;37.62;95204.03;5010048;28;20000;-77
2022/06/27 11:17:37;;;;;;;;;;;;;;;27.84;36.32;95190.19;5010050;28;19918;-78
2022/06/27 11:20:21;;;;;;;;;;;;;;;28.04;35.97;95192.75;5060738;22;19928;-77
2022/06/27 11:23:06;;;;;;;;;;;;;;;28.03;36.06;95188.53;4989741;28;19926;-77
2022/06/27 11:25:32;;;;;;;;;;;;;;;28.19;36.60;95190.53;4990594;28;19980;-77
2022/06/27 11:33:30;;;;;;;;;;;;;;;28.22;34.93;95189.88;4986772;28;20451;-76
2022/06/27 11:35:55;;;;;;;;;;;;;;;28.28;35.93;95183.19;4990407;28;19921;-76
2022/06/27 11:38:30;;;;;;;;;;;;;;;28.45;36.01;95185.63;4990209;28;19922;-76
2022/06/27 11:41:03;;;;;;;;;;;;;;;28.64;35.41;95193.88;4989838;28;19997;-76
2022/06/27 11:43:47;;;;;;;;;;;;;;;28.59;35.41;95186.06;4990606;28;19921;-76
2022/06/27 11:46:32;;;;;;;;;;;;;;;28.71;34.57;95190.63;4992123;28;20381;-77
2022/06/27 11:48:58;;;;;;;;;;;;;;;28.86;33.92;95186.47;4989905;28;20027;-76
2022/06/27 11:51:26;;;;;;;;;;;;;;;28.99;34.44;95180.00;4989350;28;19922;-76
2022/06/27 11:53:52;;;;;;;;;;;;;;;29.11;34.94;95181.81;4989806;28;20021;-76
2022/06/27 11:56:22;;;;;;;;;;;;;;;29.13;34.66;95185.75;5050591;23;20305;-76
2022/06/27 11:58:51;;;;;;;;;;;;;;;29.05;34.93;95177.84;5010812;28;19947;-76
2022/06/27 12:01:16;;;;;;;;;;;;;;;28.97;35.21;95188.38;5010081;28;19921;-76
2022/06/27 12:04:01;;;;;;;;;;;;;;;28.59;34.68;95172.69;5019643;23;20004;-76
2022/06/27 12:06:28;;;;;;;;;;;;;;;28.53;35.13;95168.69;5021284;23;19984;-76
2022/06/27 12:09:01;;;;;;;;;;;;;;;28.71;34.03;95166.53;5003299;28;19928;-76
2022/06/27 12:11:28;;;;;;;;;;;;;;;28.94;33.79;95172.19;5000722;28;20378;-76
2022/06/27 12:13:58;;;;;;;;;;;;;;;28.99;34.03;95169.28;5002511;28;19922;-76
2022/06/27 12:16:23;;;;;;;;;;;;;;;28.91;35.26;95167.50;5002716;28;19921;-76
2022/06/27 12:18:51;;;;;;;;;;;;;;;27.89;37.39;95166.69;5001934;28;19930;-76
2022/06/27 12:21:16;;;;;;;;;;;;;;;27.60;38.71;95164.94;5002888;28;19929;-77
2022/06/27 12:23:42;;;;;;;;;;;;;;;27.35;38.45;95174.78;5002930;28;19922;-77
2022/06/27 12:26:08;;;;;;;;;;;;;;;27.29;37.58;95176.09;5003285;28;20012;-76
2022/06/27 12:28:33;;;;;;;;;;;;;;;27.37;36.85;95175.22;5003199;28;19933;-76
2022/06/27 12:30:58;;;;;;;;;;;;;;;27.49;38.17;95169.91;4998012;28;20012;-76
2022/06/27 12:33:24;;;;;;;;;;;;;;;27.69;37.76;95156.88;5000728;28;20424;-76
2022/06/27 12:35:49;;;;;;;;;;;;;;;27.89;36.76;95164.00;5004191;28;20052;-77
2022/06/27 12:38:14;;;;;;;;;;;;;;;27.89;35.94;95165.91;5003200;28;19922;-77
2022/06/27 12:40:39;;;;;;;;;;;;;;;28.01;35.53;95169.38;5002349;28;19998;-76
2022/06/27 12:43:05;;;;;;;;;;;;;;;27.84;36.03;95163.44;5001351;28;19928;-77
2022/06/27 12:45:34;;;;;;;;;;;;;;;27.81;37.30;95160.31;5001422;28;19933;-77
2022/06/27 12:47:59;;;;;;;;;;;;;;;27.78;37.46;95162.88;4998955;28;19968;-77
2022/06/27 12:50:24;;;;;;;;;;;;;;;27.47;38.45;95164.13;5001415;28;19961;-77
2022/06/27 12:52:50;;;;;;;;;;;;;;;27.31;38.19;95173.09;5002476;28;19922;-77
2022/06/27 12:55:15;;;;;;;;;;;;;;;27.31;37.59;95179.19;5015717;28;20385;-77
2022/06/27 12:57:40;;;;;;;;;;;;;;;27.45;37.59;95178.91;5001852;28;19922;-77
2022/06/27 13:00:06;;;;;;;;;;;;;;;27.61;36.34;95174.50;5006198;28;19921;-78
2022/06/27 13:02:32;;;;;;;;;;;;;;;27.93;35.68;95172.91;5005202;28;19933;-78
2022/06/27 13:04:57;;;;;;;;;;;;;;;28.27;35.72;95173.63;5005790;28;19993;-78
2022/06/27 13:07:28;;;;;;;;;;;;;;;28.45;36.43;95172.25;4990937;28;19930;-78
2022/06/27 13:09:54;;;;;;;;;;;;;;;27.86;37.54;95172.69;5004208;28;20012;-78
2022/06/27 13:12:19;;;;;;;;;;;;;;;27.67;38.13;95175.13;5005826;28;19953;-78